NAS weather

Lynden Pindling International Airport
Nassau, New Providence, Bahamas

Public forecast

Using degrees Celsius for public forecast. Weather courtesy of forecast.io.

Current aviation weather report (METAR) for Lynden Pindling International Airport

Retrieved 2019/10/16 18:00 UTC (56 minutes ago):

MYNN 161800Z 24006KT 200V290 9999 FEW025 30/22 A2996

Aviation forecast (TAF) for Lynden Pindling International Airport

Retrieved 2019/10/16 18:34 UTC (22 minutes ago):

TAF MYNN 161630Z 1618/1718 18005KT 9999 SCT025